Time;durP1;ratioP1;P1;durP2;ratioP2;P2;SDS_P1;SDS_P2;PMS_P1;PMS_P2;Temp;Humidity;BMP_temperature;BMP_pressure;BME280_temperature;BME280_humidity;BME280_pressure;Samples;Min_cycle;Max_cycle;Signal;HPM_P1;HPM_P2
2022/01/03 08:15:08;;;;;;;28.17;3.65;;;;;;;-145.18;100.00;47430.09;5006253;27;20399;-74
2022/01/03 08:17:34;;;;;;;34.17;6.57;;;;;;;-145.18;100.00;47428.13;4970965;28;20086;-74
2022/01/03 08:20:01;;;;;;;34.93;4.53;;;;;;;-145.18;100.00;47416.41;5030361;28;20271;-74
2022/01/03 08:22:27;;;;;;;22.73;3.60;;;;;;;-145.18;100.00;47422.28;5010984;28;20311;-74
2022/01/03 08:24:52;;;;;;;26.23;3.93;;;;;;;-145.18;100.00;47418.38;5004990;28;20685;-74
2022/01/03 08:27:18;;;;;;;30.47;4.63;;;;;;;-145.18;100.00;47437.91;5012020;28;20060;-74
2022/01/03 08:29:43;;;;;;;27.80;4.27;;;;;;;-145.18;100.00;47451.56;5006211;28;20053;-74
2022/01/03 08:32:08;;;;;;;24.73;4.60;;;;;;;-145.18;100.00;47428.13;5023237;28;20041;-73
2022/01/03 08:34:34;;;;;;;27.73;6.63;;;;;;;-145.18;100.00;47420.31;5023113;28;20091;-74
2022/01/03 08:37:00;;;;;;;41.27;4.10;;;;;;;-145.18;100.00;47428.13;5020879;28;20156;-74
2022/01/03 08:39:26;;;;;;;40.50;6.47;;;;;;;-145.18;100.00;47441.81;5037275;28;20049;-74
2022/01/03 08:41:51;;;;;;;32.87;4.53;;;;;;;-145.18;100.00;47432.03;5024271;28;20092;-74
2022/01/03 08:44:17;;;;;;;21.00;3.30;;;;;;;-145.18;100.00;47422.28;5013459;28;20737;-74
2022/01/03 08:46:42;;;;;;;23.73;3.77;;;;;;;-145.18;100.00;47412.50;5003497;28;20050;-74
2022/01/03 08:49:08;;;;;;;28.03;4.27;;;;;;;-145.18;100.00;47426.19;5018625;28;20072;-74
2022/01/03 08:51:34;;;;;;;23.67;3.33;;;;;;;-145.18;100.00;47422.28;5009090;28;20046;-74
2022/01/03 08:53:59;;;;;;;29.07;3.67;;;;;;;-145.18;100.00;47424.22;5003722;28;20046;-74
2022/01/03 08:56:24;;;;;;;24.80;3.77;;;;;;;-145.18;100.00;47398.81;5004139;28;20506;-74
2022/01/03 08:58:50;;;;;;;22.37;4.10;;;;;;;-145.18;100.00;47418.38;5002969;28;20440;-74
2022/01/03 09:01:16;;;;;;;31.70;4.03;;;;;;;-145.18;100.00;47422.28;5003201;28;20529;-74
2022/01/03 09:03:41;;;;;;;32.17;4.17;;;;;;;-145.18;100.00;47416.41;5003228;28;20073;-73
2022/01/03 09:06:06;;;;;;;35.77;4.40;;;;;;;-145.18;100.00;47428.13;5003606;28;20157;-74
2022/01/03 09:08:32;;;;;;;24.50;4.33;;;;;;;-145.18;100.00;47391.00;5003588;28;20042;-74
2022/01/03 09:10:57;;;;;;;35.17;4.90;;;;;;;-145.18;100.00;47408.59;5002745;28;20137;-74
2022/01/03 09:13:23;;;;;;;25.17;3.60;;;;;;;-145.18;100.00;47422.28;5001586;28;20089;-74
2022/01/03 09:15:49;;;;;;;33.63;4.43;;;;;;;-145.18;100.00;47430.09;4996266;28;20451;-74
2022/01/03 09:18:17;;;;;;;21.67;3.63;;;;;;;-145.18;100.00;47402.72;5002431;28;20121;-74
2022/01/03 09:20:43;;;;;;;23.00;4.03;;;;;;;-145.18;100.00;47410.56;5000042;28;20272;-74
2022/01/03 09:23:14;;;;;;;23.17;2.97;;;;;;;-145.18;100.00;47418.38;5000884;28;20271;-74
2022/01/03 09:30:51;;;;;;;25.80;3.13;;;;;;;-145.18;100.00;47420.31;4971635;28;20599;-73
2022/01/03 09:33:17;;;;;;;27.80;3.53;;;;;;;-145.18;100.00;47412.50;4971632;28;20268;-74
2022/01/03 09:35:45;;;;;;;32.63;4.57;;;;;;;-145.18;100.00;47414.47;4969143;28;20283;-74
2022/01/03 09:38:11;;;;;;;33.40;3.80;;;;;;;-145.18;100.00;47418.38;4969525;28;20616;-74
2022/01/03 09:40:39;;;;;;;33.37;5.10;;;;;;;-145.18;100.00;47389.06;4973164;28;20769;-74
2022/01/03 09:43:08;;;;;;;45.83;6.67;;;;;;;-145.18;100.00;47406.63;4976040;28;21013;-75
2022/01/03 09:45:34;;;;;;;32.93;4.13;;;;;;;-145.18;100.00;47426.19;4968876;28;20276;-75
2022/01/03 09:48:02;;;;;;;29.17;4.37;;;;;;;-145.18;100.00;47391.00;4980749;28;20282;-74
2022/01/03 09:50:31;;;;;;;23.37;3.93;;;;;;;-145.18;100.00;47416.41;4987887;28;20096;-74
2022/01/03 09:52:57;;;;;;;30.47;5.17;;;;;;;-145.18;100.00;47418.38;4989303;28;20656;-74
2022/01/03 09:55:23;;;;;;;30.93;3.93;;;;;;;-145.18;100.00;47402.72;4989556;28;20382;-74
2022/01/03 09:57:49;;;;;;;36.40;6.40;;;;;;;-145.18;100.00;47400.78;4989236;28;20288;-74
2022/01/03 10:00:18;;;;;;;32.23;3.70;;;;;;;-145.18;100.00;47418.38;4989687;28;20289;-74
2022/01/03 10:02:45;;;;;;;31.33;4.40;;;;;;;-145.18;100.00;47404.69;4989154;28;20049;-74
2022/01/03 10:05:11;;;;;;;30.07;4.73;;;;;;;-145.18;100.00;47406.63;4989385;28;20276;-74
2022/01/03 10:07:39;;;;;;;28.80;4.30;;;;;;;-145.18;100.00;47396.88;4990357;28;20280;-74
2022/01/03 10:10:04;;;;;;;21.63;4.33;;;;;;;-145.18;100.00;47400.78;4988784;28;20034;-74
2022/01/03 10:12:30;;;;;;;22.83;3.17;;;;;;;-145.18;100.00;47402.72;4985013;28;20050;-74
2022/01/03 10:14:57;;;;;;;36.40;3.73;;;;;;;-145.18;100.00;47412.50;4988888;28;20042;-74
2022/01/03 10:17:22;;;;;;;24.73;4.40;;;;;;;-145.18;100.00;47400.78;4989089;28;20046;-74
2022/01/03 10:19:56;;;;;;;27.80;4.53;;;;;;;-145.18;100.00;47392.97;4988457;28;20330;-74
2022/01/03 10:22:25;;;;;;;30.20;4.80;;;;;;;-145.18;100.00;47404.69;4969794;28;20051;-74
2022/01/03 10:24:51;;;;;;;22.37;4.13;;;;;;;-145.18;100.00;47408.59;4969167;28;20277;-74
2022/01/03 10:27:17;;;;;;;34.83;3.67;;;;;;;-145.18;100.00;47402.72;4970694;28;20105;-74
2022/01/03 10:29:54;;;;;;;32.23;4.07;;;;;;;-145.18;100.00;47387.09;4968107;28;20696;-74
2022/01/03 10:32:27;;;;;;;17.97;3.13;;;;;;;-145.18;100.00;47404.69;4984001;28;20119;-74
2022/01/03 10:34:53;;;;;;;23.43;3.23;;;;;;;-145.18;100.00;47404.69;4984327;28;20345;-74
2022/01/03 10:37:18;;;;;;;29.43;4.67;;;;;;;-145.18;100.00;47400.78;4986241;28;20046;-74
2022/01/03 10:39:44;;;;;;;29.10;3.77;;;;;;;-145.18;100.00;47408.59;4969669;28;20055;-73
2022/01/03 10:42:18;;;;;;;22.37;3.13;;;;;;;-145.18;100.00;47418.38;4973334;28;20663;-73
2022/01/03 10:44:44;;;;;;;33.50;4.67;;;;;;;-145.18;100.00;47398.81;4981312;28;20323;-74
2022/01/03 10:47:18;;;;;;;29.33;4.33;;;;;;;-145.18;100.00;47404.69;4987602;28;20280;-73
2022/01/03 10:49:45;;;;;;;33.10;4.03;;;;;;;-145.18;100.00;47412.50;4987573;28;20311;-73
2022/01/03 10:52:16;;;;;;;23.20;3.97;;;;;;;-145.18;100.00;47410.56;4987315;28;20287;-74
2022/01/03 10:54:43;;;;;;;28.37;3.73;;;;;;;-145.18;100.00;47404.69;4986692;28;20430;-73
2022/01/03 10:57:08;;;;;;;41.47;5.33;;;;;;;-145.18;100.00;47402.72;4987188;28;20280;-74
2022/01/03 10:59:35;;;;;;;40.83;5.40;;;;;;;-145.18;100.00;47396.88;4987934;28;20279;-74
2022/01/03 11:02:04;;;;;;;26.03;3.67;;;;;;;-145.18;100.00;47394.91;4987718;28;20571;-74
2022/01/03 11:04:54;;;;;;;22.80;3.07;;;;;;;-145.18;100.00;47394.91;4987357;28;20268;-74
2022/01/03 11:13:06;;;;;;;29.60;5.03;;;;;;;-145.18;100.00;47353.88;4982955;28;20069;-74
2022/01/03 11:15:32;;;;;;;28.50;4.53;;;;;;;-145.18;100.00;47373.44;4983115;28;20039;-74
2022/01/03 11:18:12;;;;;;;28.23;4.83;;;;;;;-145.18;100.00;47359.75;4987114;28;20049;-74
2022/01/03 11:20:39;;;;;;;32.07;3.80;;;;;;;-145.18;100.00;47367.56;4983043;28;20495;-74
2022/01/03 11:23:05;;;;;;;22.33;3.97;;;;;;;-145.18;100.00;47365.63;4987119;28;20046;-74
2022/01/03 11:25:32;;;;;;;23.43;4.23;;;;;;;-145.18;100.00;47363.66;4986828;28;20046;-74
2022/01/03 11:28:00;;;;;;;29.87;4.30;;;;;;;-145.18;100.00;47355.84;4987378;28;20100;-74
2022/01/03 11:30:26;;;;;;;33.80;5.73;;;;;;;-145.18;100.00;47371.47;4985322;28;20069;-74
2022/01/03 11:32:52;;;;;;;24.53;4.30;;;;;;;-145.18;100.00;47340.22;4998933;28;20438;-73
2022/01/03 11:35:17;;;;;;;22.63;3.60;;;;;;;-145.18;100.00;47349.97;4985258;28;20462;-74
2022/01/03 11:37:46;;;;;;;26.23;4.67;;;;;;;-145.18;100.00;47340.22;4986800;28;20046;-74
2022/01/03 11:40:14;;;;;;;36.77;5.33;;;;;;;-145.18;100.00;47371.47;4986543;28;20365;-73
2022/01/03 11:42:41;;;;;;;20.17;3.73;;;;;;;-145.18;100.00;47381.25;4986849;28;20054;-74
2022/01/03 11:45:07;;;;;;;26.23;3.50;;;;;;;-145.18;100.00;47381.25;4983464;28;20054;-74
2022/01/03 11:47:35;;;;;;;27.17;2.87;;;;;;;-145.18;100.00;47391.00;5010145;28;20592;-74
2022/01/03 11:50:01;;;;;;;24.63;2.97;;;;;;;-145.18;100.00;47383.19;4987384;28;20541;-74
2022/01/03 11:52:27;;;;;;;26.63;3.73;;;;;;;-145.18;100.00;47371.47;4988836;28;20117;-73
2022/01/03 11:54:53;;;;;;;22.40;2.93;;;;;;;-145.18;100.00;47383.19;4985279;28;20057;-74
2022/01/03 12:05:52;;;;;;;19.13;2.90;;;;;;;-145.18;100.00;47389.06;4985883;28;20077;-74
2022/01/03 12:08:30;;;;;;;17.50;2.90;;;;;;;-145.18;100.00;47391.00;4986611;28;20074;-73
2022/01/03 12:11:00;;;;;;;14.73;2.47;;;;;;;-145.18;100.00;47377.34;4987144;28;20404;-73
2022/01/03 12:13:58;;;;;;;10.27;2.03;;;;;;;-145.18;100.00;47392.97;4987053;28;20411;-74
2022/01/03 12:16:46;;;;;;;24.53;3.40;;;;;;;-145.18;100.00;47391.00;4984706;28;20042;-73
2022/01/03 12:19:33;;;;;;;19.30;3.43;;;;;;;-145.18;100.00;47392.97;4983675;28;21121;-74
2022/01/03 12:22:00;;;;;;;20.20;2.97;;;;;;;-145.18;100.00;47398.81;4979552;28;20752;-74
2022/01/03 12:24:28;;;;;;;23.03;3.37;;;;;;;-145.18;100.00;47398.81;4986470;28;20042;-74
2022/01/03 12:27:16;;;;;;;22.77;2.53;;;;;;;-145.18;100.00;47373.44;4986401;28;20054;-73
2022/01/03 12:29:53;;;;;;;20.03;2.73;;;;;;;-145.18;100.00;47387.09;4982089;28;20054;-73
2022/01/03 12:32:36;;;;;;;20.27;2.77;;;;;;;-145.18;100.00;47387.09;4981538;28;20047;-73
2022/01/03 12:35:10;;;;;;;20.60;2.37;;;;;;;-145.18;100.00;47389.06;4998505;28;20311;-74
2022/01/03 12:37:38;;;;;;;20.83;2.57;;;;;;;-145.18;100.00;47394.91;4966416;28;20038;-74
2022/01/03 12:40:03;;;;;;;25.37;2.87;;;;;;;-145.18;100.00;47394.91;4967989;28;20066;-73
2022/01/03 12:42:51;;;;;;;23.30;2.73;;;;;;;-145.18;100.00;47383.19;4980356;28;20104;-74
2022/01/03 12:45:25;;;;;;;18.30;2.87;;;;;;;-145.18;100.00;47398.81;4981109;28;20130;-73
2022/01/03 12:47:52;;;;;;;22.70;3.30;;;;;;;-145.18;100.00;47398.81;4985342;28;20041;-74
2022/01/03 12:50:28;;;;;;;23.97;2.33;;;;;;;-145.18;100.00;47391.00;4980190;28;20050;-73
2022/01/03 12:52:59;;;;;;;15.03;3.30;;;;;;;-145.18;100.00;47394.91;4977373;28;20054;-73
2022/01/03 12:55:41;;;;;;;18.03;2.30;;;;;;;-145.18;100.00;47379.28;4980344;28;20307;-74
2022/01/03 12:58:18;;;;;;;19.40;2.50;;;;;;;-145.18;100.00;47389.06;4965319;28;20177;-74
2022/01/03 13:00:43;;;;;;;22.57;2.93;;;;;;;-145.18;100.00;47387.09;4969170;28;20276;-74
2022/01/03 13:03:29;;;;;;;13.80;2.17;;;;;;;-145.18;100.00;47387.09;4983868;28;20085;-74
2022/01/03 13:06:34;;;;;;;18.25;3.72;;;;;;;-145.18;100.00;47398.81;4986513;28;20038;-73
2022/01/03 13:09:09;;;;;;;22.57;3.50;;;;;;;-145.18;100.00;47406.63;4984764;28;20415;-74
2022/01/03 13:11:44;;;;;;;14.73;2.08;;;;;;;-145.18;100.00;47377.34;4990988;28;20042;-73
2022/01/03 13:14:14;;;;;;;20.48;2.70;;;;;;;-145.18;100.00;47391.00;4990290;28;20038;-74
2022/01/03 13:16:51;;;;;;;18.03;2.47;;;;;;;-145.18;100.00;47387.09;4990507;28;20644;-73
2022/01/03 13:19:27;;;;;;;14.27;2.50;;;;;;;-145.18;100.00;47392.97;4989752;28;20034;-74
2022/01/03 13:21:55;;;;;;;16.35;2.30;;;;;;;-145.18;100.00;47387.09;4986172;28;20346;-74
2022/01/03 13:24:22;;;;;;;18.27;2.97;;;;;;;-145.18;100.00;47391.00;4989512;28;20046;-74
2022/01/03 13:26:55;;;;;;;20.30;2.93;;;;;;;-145.18;100.00;47383.19;4989983;28;20519;-73
2022/01/03 13:29:21;;;;;;;16.03;2.13;;;;;;;-145.18;100.00;47391.00;4989662;28;20265;-74
2022/01/03 13:31:47;;;;;;;14.07;2.73;;;;;;;-145.18;100.00;47389.06;4987667;28;21038;-74
2022/01/03 13:34:12;;;;;;;15.83;3.07;;;;;;;-145.18;100.00;47381.25;4990116;28;20363;-74
2022/01/03 13:36:43;;;;;;;18.00;2.00;;;;;;;-145.18;100.00;47400.78;4989717;28;20388;-74
2022/01/03 13:39:09;;;;;;;19.87;2.23;;;;;;;-145.18;100.00;47391.00;4989751;28;20042;-74
2022/01/03 13:41:36;;;;;;;14.93;2.40;;;;;;;-145.18;100.00;47383.19;4989950;28;20265;-75
2022/01/03 13:44:03;;;;;;;11.87;1.93;;;;;;;-145.18;100.00;47389.06;4990062;28;20061;-74
2022/01/03 13:49:17;;;;;;;9.80;1.63;;;;;;;-145.18;100.00;47392.97;4990140;28;20148;-74
2022/01/03 13:51:47;;;;;;;14.07;1.53;;;;;;;-145.18;100.00;47400.78;4985638;28;20519;-74
2022/01/03 13:54:28;;;;;;;10.73;1.93;;;;;;;-145.18;100.00;47398.81;4989613;28;20330;-74
2022/01/03 13:56:54;;;;;;;7.67;0.90;;;;;;;-145.18;100.00;47400.78;4989506;28;20276;-74
2022/01/03 13:59:22;;;;;;;7.23;1.07;;;;;;;-145.18;100.00;47389.06;4997015;28;20285;-74
2022/01/03 14:01:49;;;;;;;8.00;1.30;;;;;;;-145.18;100.00;47373.44;4984760;28;20264;-74
2022/01/03 14:04:15;;;;;;;16.90;1.73;;;;;;;-145.18;100.00;47389.06;4989274;28;20303;-74
2022/01/03 14:06:41;;;;;;;7.60;1.50;;;;;;;-145.18;100.00;47402.72;4989499;28;20741;-74
2022/01/03 14:09:14;;;;;;;10.50;2.43;;;;;;;-145.18;100.00;47402.72;4989154;28;20371;-74
2022/01/03 14:11:40;;;;;;;5.40;1.40;;;;;;;-145.18;100.00;47398.81;4989103;28;20272;-74
2022/01/03 14:14:14;;;;;;;8.77;1.47;;;;;;;-145.18;100.00;47392.97;4988531;28;20288;-75
2022/01/03 14:16:59;;;;;;;8.53;1.13;;;;;;;-145.18;100.00;47406.63;4983918;28;20078;-74
2022/01/03 14:19:27;;;;;;;8.53;1.50;;;;;;;-145.18;100.00;47408.59;5001915;28;20284;-74
2022/01/03 14:21:53;;;;;;;6.77;1.00;;;;;;;-145.18;100.00;47398.81;4976514;28;20293;-74
2022/01/03 14:24:20;;;;;;;14.40;1.67;;;;;;;-145.18;100.00;47416.41;4971757;28;20285;-78
2022/01/03 14:26:59;;;;;;;11.50;1.20;;;;;;;-145.18;100.00;47406.63;4976627;28;20273;-75
2022/01/03 14:29:38;;;;;;;13.17;1.20;;;;;;;-145.18;100.00;47404.69;4985965;28;20290;-75
2022/01/03 14:32:12;;;;;;;9.53;1.50;;;;;;;-145.18;100.00;47396.88;4986494;28;20276;-74
2022/01/03 14:34:37;;;;;;;11.10;1.07;;;;;;;-145.18;100.00;47396.88;4988771;28;20272;-74
2022/01/03 14:37:04;;;;;;;9.80;1.00;;;;;;;-145.18;100.00;47392.97;4987396;28;20268;-74
2022/01/03 14:39:30;;;;;;;5.73;0.90;;;;;;;-145.18;100.00;47432.03;4988839;28;20030;-74
2022/01/03 14:41:59;;;;;;;6.97;0.90;;;;;;;-145.18;100.00;47408.59;4989083;28;20812;-74
2022/01/03 14:44:25;;;;;;;6.97;1.20;;;;;;;-145.18;100.00;47398.81;4988527;28;20278;-74
2022/01/03 14:47:03;;;;;;;1.97;0.70;;;;;;;-145.18;100.00;47402.72;4988615;28;20775;-74
2022/01/03 14:49:28;;;;;;;10.47;1.40;;;;;;;-145.18;100.00;47412.50;4978465;28;20277;-74
2022/01/03 14:51:54;;;;;;;6.80;1.17;;;;;;;-145.18;100.00;47418.38;4984080;28;20284;-74
2022/01/03 14:54:22;;;;;;;8.90;1.50;;;;;;;-145.18;100.00;47410.56;4971495;28;20073;-75
2022/01/03 14:56:51;;;;;;;5.77;1.50;;;;;;;-145.18;100.00;47414.47;4969743;28;20510;-74
2022/01/03 14:59:18;;;;;;;17.10;8.87;;;;;;;-145.18;100.00;47424.22;4969298;28;20249;-74
2022/01/03 15:01:47;;;;;;;6.53;2.07;;;;;;;-145.18;100.00;47404.69;4979570;28;20273;-74
2022/01/03 15:04:17;;;;;;;9.50;1.57;;;;;;;-145.18;100.00;47426.19;4983698;28;21283;-74
2022/01/03 15:06:43;;;;;;;9.27;1.30;;;;;;;-145.18;100.00;47432.03;4981442;28;20265;-74
2022/01/03 15:09:09;;;;;;;13.43;1.60;;;;;;;-145.18;100.00;47420.31;4961412;28;20362;-74
2022/01/03 15:11:35;;;;;;;7.47;1.00;;;;;;;-145.18;100.00;47412.50;4976044;28;20987;-74
2022/01/03 15:14:01;;;;;;;10.00;1.60;;;;;;;-145.18;100.00;47422.28;4967642;28;20058;-74
2022/01/03 15:16:26;;;;;;;6.90;1.33;;;;;;;-145.18;100.00;47418.38;4983528;28;20269;-75
2022/01/03 15:18:52;;;;;;;11.67;1.63;;;;;;;-145.18;100.00;47418.38;4968936;28;20399;-74
2022/01/03 15:21:17;;;;;;;7.43;1.23;;;;;;;-145.18;100.00;47424.22;4969028;28;20542;-74
2022/01/03 15:23:43;;;;;;;8.37;1.20;;;;;;;-145.18;100.00;47428.13;4989057;28;20482;-74
2022/01/03 15:26:09;;;;;;;10.97;1.43;;;;;;;-145.18;100.00;47422.28;4987926;28;20050;-74
2022/01/03 15:28:34;;;;;;;6.63;1.20;;;;;;;-145.18;100.00;47420.31;4986754;28;20454;-74
2022/01/03 15:31:00;;;;;;;6.73;1.00;;;;;;;-145.18;100.00;47426.19;4985566;28;20051;-76
2022/01/03 15:33:26;;;;;;;8.33;1.30;;;;;;;-145.18;100.00;47424.22;4986996;28;20038;-74
2022/01/03 15:35:54;;;;;;;5.27;1.03;;;;;;;-145.18;100.00;47416.41;4978414;28;20129;-76
2022/01/03 15:38:20;;;;;;;7.23;2.00;;;;;;;-145.18;100.00;47434.00;4981090;28;20276;-75
2022/01/03 15:40:46;;;;;;;8.13;1.23;;;;;;;-145.18;100.00;47441.81;4986027;28;20280;-75
2022/01/03 15:43:11;;;;;;;11.97;1.67;;;;;;;-145.18;100.00;47430.09;4980988;28;20271;-75
2022/01/03 15:45:37;;;;;;;8.37;1.13;;;;;;;-145.18;100.00;47424.22;4992209;28;20487;-75
2022/01/03 15:48:05;;;;;;;5.97;1.27;;;;;;;-145.18;100.00;47445.72;4974173;28;20137;-75
2022/01/03 15:50:31;;;;;;;5.83;1.17;;;;;;;-145.18;100.00;47430.09;4967704;28;20413;-75
2022/01/03 15:52:56;;;;;;;6.73;1.60;;;;;;;-145.18;100.00;47414.47;4971731;28;20283;-75
2022/01/03 15:55:21;;;;;;;5.93;1.00;;;;;;;-145.18;100.00;47439.84;5000916;28;20285;-75
2022/01/03 15:57:47;;;;;;;5.27;1.10;;;;;;;-145.18;100.00;47428.13;4979044;28;20042;-75
2022/01/03 16:00:14;;;;;;;6.83;1.23;;;;;;;-145.18;100.00;47418.38;4986958;28;20042;-75
2022/01/03 16:02:39;;;;;;;6.73;1.60;;;;;;;-145.18;100.00;47426.19;4986980;28;20074;-75
2022/01/03 16:05:06;;;;;;;9.07;1.33;;;;;;;-145.18;100.00;47418.38;4987826;28;20894;-75
2022/01/03 16:07:31;;;;;;;10.37;1.40;;;;;;;-145.18;100.00;47412.50;4975619;28;20047;-75
2022/01/03 16:09:57;;;;;;;6.07;1.50;;;;;;;-145.18;100.00;47432.03;4980005;28;20284;-75
2022/01/03 16:12:23;;;;;;;9.50;1.83;;;;;;;-145.18;100.00;47430.09;4987707;28;20045;-75
2022/01/03 16:14:50;;;;;;;9.77;2.03;;;;;;;-145.18;100.00;47416.41;4986210;28;20480;-75
2022/01/03 16:17:15;;;;;;;4.83;1.40;;;;;;;-145.18;100.00;47430.09;4986920;28;20307;-75
2022/01/03 16:19:41;;;;;;;9.60;1.73;;;;;;;-145.18;100.00;47428.13;4987703;28;20724;-75
2022/01/03 16:22:06;;;;;;;10.23;1.70;;;;;;;-145.18;100.00;47430.09;4987487;28;20039;-75
2022/01/03 16:24:32;;;;;;;8.50;2.20;;;;;;;-145.18;100.00;47430.09;4985832;28;20061;-75
2022/01/03 16:26:57;;;;;;;6.23;1.60;;;;;;;-145.18;100.00;47432.03;4987211;28;20050;-74
2022/01/03 16:29:24;;;;;;;8.00;1.90;;;;;;;-145.18;100.00;47422.28;4972987;28;20519;-75
2022/01/03 16:31:51;;;;;;;10.13;1.47;;;;;;;-145.18;100.00;47424.22;4972467;28;20046;-75
2022/01/03 16:34:17;;;;;;;8.43;2.40;;;;;;;-145.18;100.00;47447.66;4968643;28;20300;-75
2022/01/03 16:36:43;;;;;;;4.77;1.67;;;;;;;-145.18;100.00;47439.84;4973361;28;20276;-75
2022/01/03 16:39:08;;;;;;;10.00;1.87;;;;;;;-145.18;100.00;47441.81;4988817;28;20291;-75
2022/01/03 16:41:34;;;;;;;7.37;2.17;;;;;;;-145.18;100.00;47434.00;4991094;28;20045;-75
2022/01/03 16:44:01;;;;;;;4.90;1.60;;;;;;;-145.18;100.00;47430.09;4990865;28;20042;-75
2022/01/03 16:46:26;;;;;;;5.57;1.60;;;;;;;-145.18;100.00;47435.94;4989890;28;20096;-75
2022/01/03 16:48:52;;;;;;;9.77;1.73;;;;;;;-145.18;100.00;47432.03;4997244;28;20398;-75
2022/01/03 16:51:18;;;;;;;5.47;1.33;;;;;;;-145.18;100.00;47434.00;4991217;28;20482;-75
2022/01/03 16:53:44;;;;;;;4.00;1.43;;;;;;;-145.18;100.00;47422.28;4990905;28;20204;-75
2022/01/03 16:56:09;;;;;;;6.80;1.70;;;;;;;-145.18;100.00;47424.22;4990543;28;20816;-75
2022/01/03 16:58:37;;;;;;;9.57;1.57;;;;;;;-145.18;100.00;47428.13;4990790;28;20100;-75
2022/01/03 17:01:03;;;;;;;6.83;1.40;;;;;;;-145.18;100.00;47434.00;4990586;28;20046;-78
2022/01/03 17:03:28;;;;;;;7.33;1.87;;;;;;;-145.18;100.00;47434.00;4976295;28;20334;-78
2022/01/03 17:05:53;;;;;;;10.97;1.70;;;;;;;-145.18;100.00;47434.00;4971556;28;20490;-75
2022/01/03 17:08:19;;;;;;;13.37;2.97;;;;;;;-145.18;100.00;47422.28;4971373;28;20043;-75
2022/01/03 17:10:46;;;;;;;9.20;1.90;;;;;;;-145.18;100.00;47404.69;4970460;28;20173;-75
2022/01/03 17:13:11;;;;;;;4.27;1.40;;;;;;;-145.18;100.00;47418.38;4971084;28;20125;-75
2022/01/03 17:15:37;;;;;;;9.43;2.10;;;;;;;-145.18;100.00;47445.72;4970535;28;20428;-75
2022/01/03 17:18:03;;;;;;;7.13;2.00;;;;;;;-145.18;100.00;47414.47;4971339;28;20478;-75
2022/01/03 17:20:29;;;;;;;6.37;2.20;;;;;;;-145.18;100.00;47422.28;4970628;28;20285;-75
2022/01/03 17:22:54;;;;;;;10.27;2.20;;;;;;;-145.18;100.00;47422.28;4971520;28;20047;-75
2022/01/03 17:25:20;;;;;;;8.30;2.37;;;;;;;-145.18;100.00;47435.94;4970878;28;20121;-75
2022/01/03 17:27:46;;;;;;;9.37;2.40;;;;;;;-145.18;100.00;47434.00;4970645;28;20685;-75
2022/01/03 17:30:12;;;;;;;12.70;2.87;;;;;;;-145.18;100.00;47435.94;4970581;28;20078;-75
2022/01/03 17:32:37;;;;;;;7.40;2.50;;;;;;;-145.18;100.00;47437.91;4970800;28;20042;-75
2022/01/03 17:35:04;;;;;;;4.40;1.80;;;;;;;-145.18;100.00;47414.47;4985255;28;20807;-76
2022/01/03 17:37:29;;;;;;;11.10;2.77;;;;;;;-145.18;100.00;47424.22;4970904;28;20101;-75
2022/01/03 17:39:54;;;;;;;9.30;2.93;;;;;;;-145.18;100.00;47439.84;4970541;28;20276;-75
2022/01/03 17:42:20;;;;;;;10.10;3.37;;;;;;;-145.18;100.00;47422.28;4970773;28;20073;-78
2022/01/03 17:44:46;;;;;;;11.23;3.27;;;;;;;-145.18;100.00;47418.38;4970068;28;20094;-75
2022/01/03 17:47:20;;;;;;;8.87;3.70;;;;;;;-145.18;100.00;47430.09;4969863;28;20508;-75
2022/01/03 17:49:45;;;;;;;15.03;4.57;;;;;;;-145.18;100.00;47426.19;4970204;28;20364;-75
2022/01/03 17:52:11;;;;;;;7.70;3.47;;;;;;;-145.18;100.00;47422.28;4970555;28;20371;-75
2022/01/03 17:54:36;;;;;;;8.77;4.07;;;;;;;-145.18;100.00;47424.22;4970557;28;20423;-75
2022/01/03 17:57:02;;;;;;;10.93;4.87;;;;;;;-145.18;100.00;47426.19;4985544;28;20053;-75
2022/01/03 17:59:27;;;;;;;11.13;4.63;;;;;;;-145.18;100.00;47432.03;4970026;28;20065;-75
2022/01/03 18:01:52;;;;;;;8.57;3.80;;;;;;;-145.18;100.00;47416.41;4999810;28;20042;-75
2022/01/03 18:04:18;;;;;;;11.20;3.60;;;;;;;-145.18;100.00;47428.13;4970090;28;20125;-75
2022/01/03 18:06:43;;;;;;;12.70;3.90;;;;;;;-145.18;100.00;47439.84;4999912;28;20042;-76
2022/01/03 18:09:08;;;;;;;11.73;3.93;;;;;;;-145.18;100.00;47414.47;5017795;28;20126;-75
2022/01/03 18:11:34;;;;;;;13.90;5.20;;;;;;;-145.18;100.00;47435.94;4990758;28;20499;-75
2022/01/03 18:14:00;;;;;;;11.73;4.87;;;;;;;-145.18;100.00;47428.13;5003347;28;20054;-75
2022/01/03 18:16:26;;;;;;;14.50;4.67;;;;;;;-145.18;100.00;47449.63;4984882;28;20049;-75
2022/01/03 18:18:51;;;;;;;18.63;6.07;;;;;;;-145.18;100.00;47432.03;4989205;28;20039;-75
2022/01/03 18:21:17;;;;;;;12.87;4.30;;;;;;;-145.18;100.00;47432.03;4989084;28;20307;-75
2022/01/03 18:23:42;;;;;;;13.70;4.27;;;;;;;-145.18;100.00;47437.91;4989074;28;20590;-75
2022/01/03 18:26:08;;;;;;;10.43;5.27;;;;;;;-145.18;100.00;47428.13;4989068;28;20076;-77
2022/01/03 18:28:33;;;;;;;9.90;4.53;;;;;;;-145.18;100.00;47424.22;4986346;28;20412;-75
2022/01/03 18:30:59;;;;;;;13.57;5.00;;;;;;;-145.18;100.00;47424.22;4978811;28;20500;-75
2022/01/03 18:33:24;;;;;;;12.03;4.73;;;;;;;-145.18;100.00;47408.59;4977600;28;20174;-75
2022/01/03 18:35:49;;;;;;;10.97;4.73;;;;;;;-145.18;100.00;47441.81;4977934;28;20078;-75
2022/01/03 18:38:15;;;;;;;8.43;4.13;;;;;;;-145.18;100.00;47422.28;4981699;28;20420;-75
2022/01/03 18:40:40;;;;;;;13.23;3.87;;;;;;;-145.18;100.00;47435.94;4979133;28;20054;-75
2022/01/03 18:43:06;;;;;;;15.93;4.93;;;;;;;-145.18;100.00;47422.28;4980061;28;20398;-75
2022/01/03 18:45:32;;;;;;;14.00;5.87;;;;;;;-145.18;100.00;47434.00;4983211;28;20089;-76
2022/01/03 18:47:57;;;;;;;16.63;4.90;;;;;;;-145.18;100.00;47406.63;4979734;28;20579;-75
2022/01/03 18:50:23;;;;;;;16.33;5.53;;;;;;;-145.18;100.00;47424.22;4985458;28;20449;-75
2022/01/03 18:52:49;;;;;;;12.10;5.03;;;;;;;-145.18;100.00;47418.38;4974186;28;20380;-75
2022/01/03 18:55:16;;;;;;;12.90;4.93;;;;;;;-145.18;100.00;47432.03;4986859;28;20300;-75
2022/01/03 18:57:42;;;;;;;15.40;5.03;;;;;;;-145.18;100.00;47447.66;4987982;28;20054;-75
2022/01/03 19:00:09;;;;;;;21.33;6.07;;;;;;;-145.18;100.00;47449.63;4987617;28;20334;-75
2022/01/03 19:02:35;;;;;;;11.57;5.63;;;;;;;-145.18;100.00;47424.22;5019934;28;20406;-75
2022/01/03 19:05:01;;;;;;;14.27;5.10;;;;;;;-145.18;100.00;47430.09;4988570;28;20284;-76
2022/01/03 19:07:26;;;;;;;11.53;4.17;;;;;;;-145.18;100.00;47422.28;4988587;28;20334;-76
2022/01/03 19:09:51;;;;;;;14.43;5.57;;;;;;;-145.18;100.00;47416.41;4989393;28;20072;-75
2022/01/03 19:12:17;;;;;;;14.07;4.77;;;;;;;-145.18;100.00;47455.47;5003376;28;20427;-76
2022/01/03 19:14:42;;;;;;;16.80;5.70;;;;;;;-145.18;100.00;47430.09;4988116;28;20050;-76
2022/01/03 19:17:08;;;;;;;21.93;6.40;;;;;;;-145.18;100.00;47426.19;4988659;28;20038;-76
2022/01/03 19:19:33;;;;;;;23.90;8.07;;;;;;;-145.18;100.00;47449.63;4988677;28;20488;-76
2022/01/03 19:22:00;;;;;;;11.90;5.10;;;;;;;-145.18;100.00;47404.69;4988035;28;20073;-76
2022/01/03 19:24:25;;;;;;;14.27;5.40;;;;;;;-145.18;100.00;47416.41;5020306;28;20062;-75
2022/01/03 19:26:51;;;;;;;19.03;6.23;;;;;;;-145.18;100.00;47426.19;4986605;28;20272;-75
2022/01/03 19:29:16;;;;;;;20.07;7.67;;;;;;;-145.18;100.00;47441.81;4988379;28;20628;-76
2022/01/03 19:31:43;;;;;;;14.67;5.00;;;;;;;-145.18;100.00;47424.22;5018475;28;20117;-76
2022/01/03 19:39:37;;;;;;;16.93;6.30;;;;;;;-145.18;100.00;47418.38;4971242;28;20296;-76
2022/01/03 19:42:03;;;;;;;14.90;4.90;;;;;;;-145.18;100.00;47412.50;4979066;28;20275;-76
2022/01/03 19:44:28;;;;;;;21.70;5.27;;;;;;;-145.18;100.00;47416.41;5007132;28;20636;-76
2022/01/03 19:46:55;;;;;;;19.90;5.30;;;;;;;-145.18;100.00;47416.41;5005767;28;20042;-75
2022/01/03 19:49:22;;;;;;;18.20;6.20;;;;;;;-145.18;100.00;47426.19;4985278;28;20558;-78